Bridel, Luxembourg
Current Conditions -  °F | °C
As of 12:50 AM on Sunday 26 Oct 2014 (Local Time) from ELLX Reporting Station
Broken Clouds Broken Clouds  
Wind Chill: 52°   Ceiling: 6800
Heat Index: 52°   Visibility: 6mi
Dew Point: 50°   Wind: 3mph
Humidity: 94%   Direction: 280°W
Pressure: 30.24"   Gusts: NA
Location:  49.66°N, 6.08°E
Report Text: ELLX 252250Z 28003KT 9999 SCT044 BKN068 11/10 Q1024 NOSIG
Loading
Personal Weather Stations






























Interactive Weather Map
Tropical Storm Tracking
New forecast layout! Learn more

10-Day Weather Forecast

Advertisements
Track Severe Weather on mobile